sensor_id;sensor_type;location;lat;lon;timestamp;pressure;altitude;pressure_sealevel;temperature;humidity
60920;BME280;59039;52.108;19.942;2023-02-03T00:00:16;101135.20;;;1.41;77.66
60920;BME280;59039;52.108;19.942;2023-02-03T00:02:41;101133.37;;;1.38;77.19
60920;BME280;59039;52.108;19.942;2023-02-03T00:05:17;101136.17;;;1.36;77.47
60920;BME280;59039;52.108;19.942;2023-02-03T00:07:45;101136.18;;;1.36;77.50
60920;BME280;59039;52.108;19.942;2023-02-03T00:10:14;101134.86;;;1.37;77.77
60920;BME280;59039;52.108;19.942;2023-02-03T00:12:50;101136.05;;;1.38;77.80
60920;BME280;59039;52.108;19.942;2023-02-03T00:15:21;101138.02;;;1.38;77.43
60920;BME280;59039;52.108;19.942;2023-02-03T00:18:00;101139.16;;;1.37;77.43
60920;BME280;59039;52.108;19.942;2023-02-03T00:20:36;101140.33;;;1.35;76.68
60920;BME280;59039;52.108;19.942;2023-02-03T00:23:09;101144.50;;;1.34;76.96
60920;BME280;59039;52.108;19.942;2023-02-03T00:25:39;101150.27;;;1.33;76.47
60920;BME280;59039;52.108;19.942;2023-02-03T00:28:05;101151.64;;;1.30;76.17
60920;BME280;59039;52.108;19.942;2023-02-03T00:30:32;101152.23;;;1.29;76.36
60920;BME280;59039;52.108;19.942;2023-02-03T00:33:01;101155.67;;;1.28;76.14
60920;BME280;59039;52.108;19.942;2023-02-03T00:35:32;101156.92;;;1.28;75.52
60920;BME280;59039;52.108;19.942;2023-02-03T00:37:58;101147.41;;;1.25;75.06
60920;BME280;59039;52.108;19.942;2023-02-03T00:40:31;101148.75;;;1.23;75.63
60920;BME280;59039;52.108;19.942;2023-02-03T00:43:10;101146.47;;;1.22;75.47
60920;BME280;59039;52.108;19.942;2023-02-03T00:48:16;101149.33;;;1.23;75.93
60920;BME280;59039;52.108;19.942;2023-02-03T00:50:41;101150.42;;;1.22;75.72
60920;BME280;59039;52.108;19.942;2023-02-03T00:53:07;101148.18;;;1.21;75.64
60920;BME280;59039;52.108;19.942;2023-02-03T00:55:32;101146.77;;;1.20;75.68
60920;BME280;59039;52.108;19.942;2023-02-03T00:57:58;101148.57;;;1.20;76.29
60920;BME280;59039;52.108;19.942;2023-02-03T01:00:44;101150.59;;;1.19;75.72
60920;BME280;59039;52.108;19.942;2023-02-03T01:03:12;101153.86;;;1.18;75.78
60920;BME280;59039;52.108;19.942;2023-02-03T01:05:37;101146.41;;;1.17;75.79
60920;BME280;59039;52.108;19.942;2023-02-03T01:08:06;101138.77;;;1.16;75.65
60920;BME280;59039;52.108;19.942;2023-02-03T01:10:36;101136.32;;;1.15;75.60
60920;BME280;59039;52.108;19.942;2023-02-03T01:13:02;101134.39;;;1.15;75.50
60920;BME280;59039;52.108;19.942;2023-02-03T01:15:41;101137.34;;;1.13;75.40
60920;BME280;59039;52.108;19.942;2023-02-03T01:18:09;101138.52;;;1.11;75.31
60920;BME280;59039;52.108;19.942;2023-02-03T01:21:04;101136.86;;;1.08;75.31
60920;BME280;59039;52.108;19.942;2023-02-03T01:23:29;101134.46;;;1.06;75.20
60920;BME280;59039;52.108;19.942;2023-02-03T01:25:56;101129.92;;;1.04;75.33
60920;BME280;59039;52.108;19.942;2023-02-03T01:28:33;101123.27;;;1.01;75.90
60920;BME280;59039;52.108;19.942;2023-02-03T01:31:29;101120.25;;;0.97;75.75
60920;BME280;59039;52.108;19.942;2023-02-03T01:33:55;101119.95;;;0.93;75.54
60920;BME280;59039;52.108;19.942;2023-02-03T01:36:25;101117.35;;;0.88;75.89
60920;BME280;59039;52.108;19.942;2023-02-03T01:38:54;101118.79;;;0.84;75.81
60920;BME280;59039;52.108;19.942;2023-02-03T01:41:42;101110.74;;;0.80;75.84
60920;BME280;59039;52.108;19.942;2023-02-03T01:47:00;101104.42;;;0.78;75.94
60920;BME280;59039;52.108;19.942;2023-02-03T01:49:29;101106.66;;;0.76;75.98
60920;BME280;59039;52.108;19.942;2023-02-03T01:51:59;101106.42;;;0.74;76.05
60920;BME280;59039;52.108;19.942;2023-02-03T01:54:30;101108.02;;;0.71;75.83
60920;BME280;59039;52.108;19.942;2023-02-03T01:57:11;101106.77;;;0.67;76.20
60920;BME280;59039;52.108;19.942;2023-02-03T01:59:42;101103.86;;;0.60;76.01
60920;BME280;59039;52.108;19.942;2023-02-03T02:02:11;101101.29;;;0.55;76.04
60920;BME280;59039;52.108;19.942;2023-02-03T02:05:12;101102.03;;;0.50;76.18
60920;BME280;59039;52.108;19.942;2023-02-03T02:07:42;101102.05;;;0.47;76.22
60920;BME280;59039;52.108;19.942;2023-02-03T02:10:49;101102.97;;;0.42;76.44
60920;BME280;59039;52.108;19.942;2023-02-03T02:13:27;101097.14;;;0.37;76.29
60920;BME280;59039;52.108;19.942;2023-02-03T02:19:33;101089.09;;;0.27;76.27
60920;BME280;59039;52.108;19.942;2023-02-03T02:33:42;101066.82;;;-0.00;77.01
60920;BME280;59039;52.108;19.942;2023-02-03T02:39:18;101065.75;;;-0.08;77.46
60920;BME280;59039;52.108;19.942;2023-02-03T02:42:38;101062.39;;;-0.08;77.61
60920;BME280;59039;52.108;19.942;2023-02-03T02:45:15;101059.48;;;-0.11;77.88
60920;BME280;59039;52.108;19.942;2023-02-03T02:47:49;101054.27;;;-0.14;78.05
60920;BME280;59039;52.108;19.942;2023-02-03T02:50:22;101060.93;;;-0.15;78.12
60920;BME280;59039;52.108;19.942;2023-02-03T02:55:35;101068.06;;;-0.15;78.40
60920;BME280;59039;52.108;19.942;2023-02-03T02:58:18;101072.16;;;-0.15;78.35
60920;BME280;59039;52.108;19.942;2023-02-03T03:00:45;101074.32;;;-0.16;78.47
60920;BME280;59039;52.108;19.942;2023-02-03T03:03:15;101070.38;;;-0.16;78.60
60920;BME280;59039;52.108;19.942;2023-02-03T03:05:45;101064.68;;;-0.16;78.57
60920;BME280;59039;52.108;19.942;2023-02-03T03:08:18;101056.52;;;-0.16;78.52
60920;BME280;59039;52.108;19.942;2023-02-03T03:10:52;101049.86;;;-0.18;78.62
60920;BME280;59039;52.108;19.942;2023-02-03T03:13:32;101046.63;;;-0.18;78.71
60920;BME280;59039;52.108;19.942;2023-02-03T03:16:00;101041.89;;;-0.15;78.69
60920;BME280;59039;52.108;19.942;2023-02-03T03:18:41;101036.13;;;-0.15;78.60
60920;BME280;59039;52.108;19.942;2023-02-03T03:21:13;101030.83;;;-0.15;78.37
60920;BME280;59039;52.108;19.942;2023-02-03T03:23:45;101026.09;;;-0.17;78.46
60920;BME280;59039;52.108;19.942;2023-02-03T03:26:21;101026.73;;;-0.19;78.43
60920;BME280;59039;52.108;19.942;2023-02-03T03:29:02;101026.48;;;-0.22;78.45
60920;BME280;59039;52.108;19.942;2023-02-03T03:31:31;101023.16;;;-0.23;78.55
60920;BME280;59039;52.108;19.942;2023-02-03T03:33:59;101017.66;;;-0.24;78.55
60920;BME280;59039;52.108;19.942;2023-02-03T03:42:37;101016.20;;;-0.27;78.80
60920;BME280;59039;52.108;19.942;2023-02-03T03:45:26;101019.02;;;-0.26;78.85
60920;BME280;59039;52.108;19.942;2023-02-03T03:50:57;101018.31;;;-0.26;78.78
60920;BME280;59039;52.108;19.942;2023-02-03T03:56:18;101011.09;;;-0.27;78.83
60920;BME280;59039;52.108;19.942;2023-02-03T03:58:52;101012.34;;;-0.28;78.77
60920;BME280;59039;52.108;19.942;2023-02-03T04:04:01;101022.61;;;-0.30;78.81
60920;BME280;59039;52.108;19.942;2023-02-03T04:06:27;101022.01;;;-0.32;78.94
60920;BME280;59039;52.108;19.942;2023-02-03T04:09:02;101030.23;;;-0.33;78.95
60920;BME280;59039;52.108;19.942;2023-02-03T04:11:31;101028.11;;;-0.34;78.98
60920;BME280;59039;52.108;19.942;2023-02-03T04:13:56;101024.96;;;-0.35;79.01
60920;BME280;59039;52.108;19.942;2023-02-03T04:16:24;101023.00;;;-0.35;79.15
60920;BME280;59039;52.108;19.942;2023-02-03T04:18:50;101021.58;;;-0.35;79.11
60920;BME280;59039;52.108;19.942;2023-02-03T04:21:18;101015.70;;;-0.35;79.07
60920;BME280;59039;52.108;19.942;2023-02-03T04:23:49;101016.26;;;-0.35;79.15
60920;BME280;59039;52.108;19.942;2023-02-03T04:29:16;101009.64;;;-0.35;79.13
60920;BME280;59039;52.108;19.942;2023-02-03T04:31:42;101006.29;;;-0.35;79.16
60920;BME280;59039;52.108;19.942;2023-02-03T04:34:18;101001.16;;;-0.36;79.26
60920;BME280;59039;52.108;19.942;2023-02-03T04:37:00;101000.44;;;-0.36;79.30
60920;BME280;59039;52.108;19.942;2023-02-03T04:39:52;101000.38;;;-0.35;79.41
60920;BME280;59039;52.108;19.942;2023-02-03T04:42:19;100994.84;;;-0.34;79.41
60920;BME280;59039;52.108;19.942;2023-02-03T04:45:00;100993.40;;;-0.34;79.35
60920;BME280;59039;52.108;19.942;2023-02-03T04:47:32;100990.05;;;-0.35;79.42
60920;BME280;59039;52.108;19.942;2023-02-03T04:50:00;100990.73;;;-0.34;79.54
60920;BME280;59039;52.108;19.942;2023-02-03T04:52:30;100990.88;;;-0.34;79.47
60920;BME280;59039;52.108;19.942;2023-02-03T04:55:20;100988.38;;;-0.33;79.43
60920;BME280;59039;52.108;19.942;2023-02-03T04:57:44;100987.98;;;-0.32;79.45
60920;BME280;59039;52.108;19.942;2023-02-03T05:00:23;100983.87;;;-0.32;79.39
60920;BME280;59039;52.108;19.942;2023-02-03T05:02:49;100981.23;;;-0.33;79.38
60920;BME280;59039;52.108;19.942;2023-02-03T05:05:17;100972.13;;;-0.32;79.34
60920;BME280;59039;52.108;19.942;2023-02-03T05:07:46;100968.16;;;-0.31;79.31
60920;BME280;59039;52.108;19.942;2023-02-03T05:10:14;100969.73;;;-0.30;79.34
60920;BME280;59039;52.108;19.942;2023-02-03T05:12:39;100968.11;;;-0.30;79.38
60920;BME280;59039;52.108;19.942;2023-02-03T05:15:05;100971.60;;;-0.29;79.30
60920;BME280;59039;52.108;19.942;2023-02-03T05:17:31;100967.11;;;-0.28;79.31
60920;BME280;59039;52.108;19.942;2023-02-03T05:19:58;100967.30;;;-0.28;79.26
60920;BME280;59039;52.108;19.942;2023-02-03T05:22:27;100966.60;;;-0.28;79.25
60920;BME280;59039;52.108;19.942;2023-02-03T05:24:55;100958.77;;;-0.28;79.21
60920;BME280;59039;52.108;19.942;2023-02-03T05:27:20;100948.78;;;-0.28;79.32
60920;BME280;59039;52.108;19.942;2023-02-03T05:29:48;100943.23;;;-0.27;79.36
60920;BME280;59039;52.108;19.942;2023-02-03T05:32:24;100939.22;;;-0.25;79.40
60920;BME280;59039;52.108;19.942;2023-02-03T05:34:55;100932.74;;;-0.24;79.45
60920;BME280;59039;52.108;19.942;2023-02-03T05:37:24;100924.33;;;-0.23;79.34
60920;BME280;59039;52.108;19.942;2023-02-03T05:39:52;100922.27;;;-0.21;79.36
60920;BME280;59039;52.108;19.942;2023-02-03T05:42:17;100914.21;;;-0.20;79.35
60920;BME280;59039;52.108;19.942;2023-02-03T05:44:48;100916.05;;;-0.18;79.36
60920;BME280;59039;52.108;19.942;2023-02-03T05:47:14;100914.08;;;-0.17;79.32
60920;BME280;59039;52.108;19.942;2023-02-03T05:49:48;100909.39;;;-0.16;79.24
60920;BME280;59039;52.108;19.942;2023-02-03T05:52:14;100906.45;;;-0.14;79.13
60920;BME280;59039;52.108;19.942;2023-02-03T05:54:39;100907.89;;;-0.15;79.14
60920;BME280;59039;52.108;19.942;2023-02-03T05:57:07;100908.55;;;-0.13;79.19
60920;BME280;59039;52.108;19.942;2023-02-03T05:59:33;100907.25;;;-0.12;79.17
60920;BME280;59039;52.108;19.942;2023-02-03T06:01:58;100906.84;;;-0.11;79.03
60920;BME280;59039;52.108;19.942;2023-02-03T06:04:24;100909.44;;;-0.10;79.12
60920;BME280;59039;52.108;19.942;2023-02-03T06:06:52;100903.34;;;-0.09;79.17
60920;BME280;59039;52.108;19.942;2023-02-03T06:09:31;100902.57;;;-0.08;79.07
60920;BME280;59039;52.108;19.942;2023-02-03T06:12:05;100900.40;;;-0.07;79.02
60920;BME280;59039;52.108;19.942;2023-02-03T06:14:33;100898.96;;;-0.07;79.06
60920;BME280;59039;52.108;19.942;2023-02-03T06:16:59;100900.33;;;-0.06;79.10
60920;BME280;59039;52.108;19.942;2023-02-03T06:19:24;100898.52;;;-0.05;79.05
60920;BME280;59039;52.108;19.942;2023-02-03T06:21:50;100891.37;;;-0.05;79.04
60920;BME280;59039;52.108;19.942;2023-02-03T06:24:18;100886.35;;;-0.04;78.99
60920;BME280;59039;52.108;19.942;2023-02-03T06:26:43;100875.12;;;-0.04;78.95
60920;BME280;59039;52.108;19.942;2023-02-03T06:29:33;100874.36;;;-0.03;78.95
60920;BME280;59039;52.108;19.942;2023-02-03T06:31:58;100867.20;;;-0.03;78.84
60920;BME280;59039;52.108;19.942;2023-02-03T06:34:24;100863.48;;;-0.02;78.94
60920;BME280;59039;52.108;19.942;2023-02-03T06:36:52;100863.60;;;-0.01;78.89
60920;BME280;59039;52.108;19.942;2023-02-03T06:39:22;100858.19;;;0.00;78.86
60920;BME280;59039;52.108;19.942;2023-02-03T06:42:09;100856.85;;;0.02;78.86
60920;BME280;59039;52.108;19.942;2023-02-03T06:44:54;100851.06;;;0.04;78.82
60920;BME280;59039;52.108;19.942;2023-02-03T06:47:28;100846.74;;;0.05;78.93
60920;BME280;59039;52.108;19.942;2023-02-03T06:50:05;100831.57;;;0.05;78.83
60920;BME280;59039;52.108;19.942;2023-02-03T06:52:31;100822.92;;;0.07;78.74
60920;BME280;59039;52.108;19.942;2023-02-03T06:54:56;100818.91;;;0.09;78.71
60920;BME280;59039;52.108;19.942;2023-02-03T06:57:35;100819.89;;;0.11;78.70
60920;BME280;59039;52.108;19.942;2023-02-03T07:00:07;100810.38;;;0.12;78.73
60920;BME280;59039;52.108;19.942;2023-02-03T07:02:33;100810.66;;;0.14;78.75
60920;BME280;59039;52.108;19.942;2023-02-03T07:05:01;100806.61;;;0.16;78.73
60920;BME280;59039;52.108;19.942;2023-02-03T07:07:39;100799.94;;;0.17;78.70
60920;BME280;59039;52.108;19.942;2023-02-03T07:10:07;100797.20;;;0.18;78.70
60920;BME280;59039;52.108;19.942;2023-02-03T07:12:33;100792.15;;;0.20;78.50
60920;BME280;59039;52.108;19.942;2023-02-03T07:15:08;100791.55;;;0.21;78.68
60920;BME280;59039;52.108;19.942;2023-02-03T07:17:36;100786.14;;;0.23;78.63
60920;BME280;59039;52.108;19.942;2023-02-03T07:20:03;100786.62;;;0.24;78.56
60920;BME280;59039;52.108;19.942;2023-02-03T07:22:42;100775.55;;;0.24;78.71
60920;BME280;59039;52.108;19.942;2023-02-03T07:25:29;100776.91;;;0.25;78.67
60920;BME280;59039;52.108;19.942;2023-02-03T07:27:53;100770.09;;;0.26;78.62
60920;BME280;59039;52.108;19.942;2023-02-03T07:30:24;100764.85;;;0.27;78.81
60920;BME280;59039;52.108;19.942;2023-02-03T07:38:21;100744.70;;;0.31;78.47
60920;BME280;59039;52.108;19.942;2023-02-03T07:40:47;100736.41;;;0.33;78.54
60920;BME280;59039;52.108;19.942;2023-02-03T07:43:33;100731.48;;;0.35;78.55
60920;BME280;59039;52.108;19.942;2023-02-03T07:46:03;100724.19;;;0.38;78.47
60920;BME280;59039;52.108;19.942;2023-02-03T07:48:32;100718.89;;;0.40;78.52
60920;BME280;59039;52.108;19.942;2023-02-03T07:51:00;100718.07;;;0.42;78.49
60920;BME280;59039;52.108;19.942;2023-02-03T07:53:31;100714.98;;;0.44;78.38
60920;BME280;59039;52.108;19.942;2023-02-03T07:56:00;100710.99;;;0.45;78.28
60920;BME280;59039;52.108;19.942;2023-02-03T07:58:25;100709.31;;;0.46;78.47
60920;BME280;59039;52.108;19.942;2023-02-03T08:00:51;100705.48;;;0.48;78.23
60920;BME280;59039;52.108;19.942;2023-02-03T08:03:16;100705.18;;;0.50;78.02
60920;BME280;59039;52.108;19.942;2023-02-03T08:05:49;100701.66;;;0.53;78.03
60920;BME280;59039;52.108;19.942;2023-02-03T08:08:15;100699.71;;;0.55;78.13
60920;BME280;59039;52.108;19.942;2023-02-03T08:10:41;100695.55;;;0.57;77.98
60920;BME280;59039;52.108;19.942;2023-02-03T08:13:09;100689.04;;;0.58;77.99
60920;BME280;59039;52.108;19.942;2023-02-03T08:15:37;100680.45;;;0.58;77.84
60920;BME280;59039;52.108;19.942;2023-02-03T08:18:03;100666.73;;;0.58;77.59
60920;BME280;59039;52.108;19.942;2023-02-03T08:20:30;100661.38;;;0.59;77.67
60920;BME280;59039;52.108;19.942;2023-02-03T08:23:03;100655.83;;;0.59;77.61
60920;BME280;59039;52.108;19.942;2023-02-03T08:25:29;100650.65;;;0.59;77.51
60920;BME280;59039;52.108;19.942;2023-02-03T08:28:02;100643.14;;;0.59;77.49
60920;BME280;59039;52.108;19.942;2023-02-03T08:30:38;100633.59;;;0.61;77.47
60920;BME280;59039;52.108;19.942;2023-02-03T08:33:06;100632.79;;;0.63;77.42
60920;BME280;59039;52.108;19.942;2023-02-03T08:35:31;100629.94;;;0.66;77.43
60920;BME280;59039;52.108;19.942;2023-02-03T08:38:06;100623.88;;;0.69;77.55
60920;BME280;59039;52.108;19.942;2023-02-03T08:40:43;100621.95;;;0.72;77.34
60920;BME280;59039;52.108;19.942;2023-02-03T08:43:17;100618.61;;;0.74;76.97
60920;BME280;59039;52.108;19.942;2023-02-03T08:45:46;100610.23;;;0.77;77.17
60920;BME280;59039;52.108;19.942;2023-02-03T08:48:11;100607.21;;;0.80;77.04
60920;BME280;59039;52.108;19.942;2023-02-03T08:50:40;100603.81;;;0.83;77.20
60920;BME280;59039;52.108;19.942;2023-02-03T08:53:06;100596.48;;;0.87;77.11
60920;BME280;59039;52.108;19.942;2023-02-03T08:56:02;100586.50;;;0.90;77.38
60920;BME280;59039;52.108;19.942;2023-02-03T08:58:50;100580.46;;;0.92;77.27
60920;BME280;59039;52.108;19.942;2023-02-03T09:01:18;100571.61;;;0.94;76.93
60920;BME280;59039;52.108;19.942;2023-02-03T09:09:39;100551.00;;;1.05;76.88
60920;BME280;59039;52.108;19.942;2023-02-03T09:12:07;100547.73;;;1.09;77.00
60920;BME280;59039;52.108;19.942;2023-02-03T09:14:33;100539.23;;;1.11;77.02
60920;BME280;59039;52.108;19.942;2023-02-03T09:17:00;100537.84;;;1.13;76.97
60920;BME280;59039;52.108;19.942;2023-02-03T09:22:12;100526.42;;;1.13;76.56
60920;BME280;59039;52.108;19.942;2023-02-03T09:24:37;100523.02;;;1.13;76.27
60920;BME280;59039;52.108;19.942;2023-02-03T09:27:14;100522.83;;;1.13;76.16
60920;BME280;59039;52.108;19.942;2023-02-03T09:32:41;100503.48;;;1.17;76.38
60920;BME280;59039;52.108;19.942;2023-02-03T09:35:12;100490.66;;;1.20;76.69
60920;BME280;59039;52.108;19.942;2023-02-03T09:37:40;100489.71;;;1.21;76.89
60920;BME280;59039;52.108;19.942;2023-02-03T09:40:29;100481.76;;;1.20;76.33
60920;BME280;59039;52.108;19.942;2023-02-03T09:46:06;100460.27;;;1.18;76.00
60920;BME280;59039;52.108;19.942;2023-02-03T09:48:35;100455.10;;;1.18;76.17
60920;BME280;59039;52.108;19.942;2023-02-03T09:51:07;100449.07;;;1.17;75.75
60920;BME280;59039;52.108;19.942;2023-02-03T09:56:34;100441.95;;;1.20;75.94
60920;BME280;59039;52.108;19.942;2023-02-03T09:59:01;100432.27;;;1.21;75.96
60920;BME280;59039;52.108;19.942;2023-02-03T10:01:59;100428.60;;;1.22;75.86
60920;BME280;59039;52.108;19.942;2023-02-03T10:04:37;100420.48;;;1.26;75.98
60920;BME280;59039;52.108;19.942;2023-02-03T10:10:11;100400.61;;;1.33;75.92
60920;BME280;59039;52.108;19.942;2023-02-03T10:13:20;100397.07;;;1.35;76.05
60920;BME280;59039;52.108;19.942;2023-02-03T10:18:27;100366.80;;;1.42;76.13
60920;BME280;59039;52.108;19.942;2023-02-03T10:21:02;100361.34;;;1.47;76.18
60920;BME280;59039;52.108;19.942;2023-02-03T10:23:35;100352.08;;;1.50;76.35
60920;BME280;59039;52.108;19.942;2023-02-03T10:26:35;100343.92;;;1.52;75.94
60920;BME280;59039;52.108;19.942;2023-02-03T10:32:13;100323.13;;;1.58;75.40
60920;BME280;59039;52.108;19.942;2023-02-03T10:34:43;100311.77;;;1.60;76.02
60920;BME280;59039;52.108;19.942;2023-02-03T10:37:30;100307.55;;;1.61;76.03
60920;BME280;59039;52.108;19.942;2023-02-03T10:40:24;100297.33;;;1.62;75.82
60920;BME280;59039;52.108;19.942;2023-02-03T10:43:08;100288.67;;;1.63;75.79
60920;BME280;59039;52.108;19.942;2023-02-03T10:45:58;100276.21;;;1.65;75.76
60920;BME280;59039;52.108;19.942;2023-02-03T10:48:23;100271.35;;;1.66;75.48
60920;BME280;59039;52.108;19.942;2023-02-03T10:50:53;100260.05;;;1.66;75.42
60920;BME280;59039;52.108;19.942;2023-02-03T10:53:25;100253.84;;;1.69;75.49
60920;BME280;59039;52.108;19.942;2023-02-03T10:56:10;100244.77;;;1.71;75.44
60920;BME280;59039;52.108;19.942;2023-02-03T10:58:39;100229.97;;;1.74;75.64
60920;BME280;59039;52.108;19.942;2023-02-03T11:04:40;100210.50;;;1.78;75.06
60920;BME280;59039;52.108;19.942;2023-02-03T11:07:02;100203.49;;;1.82;75.25
60920;BME280;59039;52.108;19.942;2023-02-03T11:12:29;100178.55;;;1.83;75.08
60920;BME280;59039;52.108;19.942;2023-02-03T11:15:15;100161.89;;;1.84;74.57
60920;BME280;59039;52.108;19.942;2023-02-03T11:17:43;100150.89;;;1.85;74.76
60920;BME280;59039;52.108;19.942;2023-02-03T11:20:15;100143.02;;;1.88;75.07
60920;BME280;59039;52.108;19.942;2023-02-03T11:22:44;100138.13;;;1.89;75.14
60920;BME280;59039;52.108;19.942;2023-02-03T11:25:37;100139.30;;;1.90;75.21
60920;BME280;59039;52.108;19.942;2023-02-03T11:28:16;100136.39;;;1.91;75.26
60920;BME280;59039;52.108;19.942;2023-02-03T11:33:23;100116.89;;;1.89;75.53
60920;BME280;59039;52.108;19.942;2023-02-03T11:35:58;100108.50;;;1.86;75.78
60920;BME280;59039;52.108;19.942;2023-02-03T11:38:32;100102.27;;;1.83;75.93
60920;BME280;59039;52.108;19.942;2023-02-03T11:41:21;100098.70;;;1.81;76.09
60920;BME280;59039;52.108;19.942;2023-02-03T11:43:51;100094.46;;;1.78;76.23
60920;BME280;59039;52.108;19.942;2023-02-03T11:46:29;100085.46;;;1.76;76.37
60920;BME280;59039;52.108;19.942;2023-02-03T11:49:06;100075.74;;;1.75;76.52
60920;BME280;59039;52.108;19.942;2023-02-03T11:51:47;100065.89;;;1.73;76.59
60920;BME280;59039;52.108;19.942;2023-02-03T11:54:43;100052.60;;;1.68;76.73
60920;BME280;59039;52.108;19.942;2023-02-03T11:57:26;100044.42;;;1.62;76.87
60920;BME280;59039;52.108;19.942;2023-02-03T12:03:31;100028.41;;;1.54;77.08
60920;BME280;59039;52.108;19.942;2023-02-03T12:11:40;99991.02;;;1.32;77.95
60920;BME280;59039;52.108;19.942;2023-02-03T12:14:36;99983.11;;;1.28;77.88
60920;BME280;59039;52.108;19.942;2023-02-03T12:17:20;99966.11;;;1.18;77.83
60920;BME280;59039;52.108;19.942;2023-02-03T12:19:54;99951.36;;;1.09;78.25
60920;BME280;59039;52.108;19.942;2023-02-03T12:28:16;99918.85;;;0.76;78.80
60920;BME280;59039;52.108;19.942;2023-02-03T12:31:10;99903.19;;;0.62;79.11
60920;BME280;59039;52.108;19.942;2023-02-03T12:33:41;99888.73;;;0.55;79.51
60920;BME280;59039;52.108;19.942;2023-02-03T12:36:17;99876.26;;;0.44;79.94
60920;BME280;59039;52.108;19.942;2023-02-03T12:39:05;99866.84;;;0.36;80.22
60920;BME280;59039;52.108;19.942;2023-02-03T12:41:38;99857.79;;;0.27;80.28
60920;BME280;59039;52.108;19.942;2023-02-03T12:44:07;99843.80;;;0.21;80.53
60920;BME280;59039;52.108;19.942;2023-02-03T12:46:51;99830.58;;;0.13;81.08
60920;BME280;59039;52.108;19.942;2023-02-03T12:49:41;99820.34;;;0.04;81.52
60920;BME280;59039;52.108;19.942;2023-02-03T12:55:05;99793.92;;;-0.08;81.60
60920;BME280;59039;52.108;19.942;2023-02-03T13:08:56;99744.71;;;-0.26;82.73
60920;BME280;59039;52.108;19.942;2023-02-03T13:11:45;99741.17;;;-0.29;82.71
60920;BME280;59039;52.108;19.942;2023-02-03T13:17:19;99721.00;;;-0.34;83.39
60920;BME280;59039;52.108;19.942;2023-02-03T13:19:51;99710.21;;;-0.37;83.56
60920;BME280;59039;52.108;19.942;2023-02-03T13:22:37;99696.35;;;-0.40;83.71
60920;BME280;59039;52.108;19.942;2023-02-03T13:25:17;99688.06;;;-0.42;83.83
60920;BME280;59039;52.108;19.942;2023-02-03T13:42:36;99630.60;;;-0.52;84.84
60920;BME280;59039;52.108;19.942;2023-02-03T13:50:35;99613.21;;;-0.51;84.87
60920;BME280;59039;52.108;19.942;2023-02-03T13:53:18;99602.30;;;-0.50;84.95
60920;BME280;59039;52.108;19.942;2023-02-03T13:56:05;99595.58;;;-0.50;85.22
60920;BME280;59039;52.108;19.942;2023-02-03T13:58:38;99590.90;;;-0.52;85.25
60920;BME280;59039;52.108;19.942;2023-02-03T14:01:30;99583.04;;;-0.52;85.31
60920;BME280;59039;52.108;19.942;2023-02-03T14:03:59;99569.42;;;-0.53;85.45
60920;BME280;59039;52.108;19.942;2023-02-03T14:06:58;99557.22;;;-0.54;85.53
60920;BME280;59039;52.108;19.942;2023-02-03T14:15:43;99543.90;;;-0.57;85.96
60920;BME280;59039;52.108;19.942;2023-02-03T14:20:44;99530.09;;;-0.58;86.12
60920;BME280;59039;52.108;19.942;2023-02-03T14:23:39;99522.27;;;-0.58;86.03
60920;BME280;59039;52.108;19.942;2023-02-03T14:26:35;99522.32;;;-0.59;86.06
60920;BME280;59039;52.108;19.942;2023-02-03T14:29:10;99518.89;;;-0.58;86.20
60920;BME280;59039;52.108;19.942;2023-02-03T14:35:14;99508.46;;;-0.54;86.02
60920;BME280;59039;52.108;19.942;2023-02-03T14:37:51;99501.92;;;-0.52;85.95
60920;BME280;59039;52.108;19.942;2023-02-03T14:43:48;99494.23;;;-0.49;85.96
60920;BME280;59039;52.108;19.942;2023-02-03T14:46:49;99489.66;;;-0.47;86.48
60920;BME280;59039;52.108;19.942;2023-02-03T14:49:36;99483.90;;;-0.44;86.56
60920;BME280;59039;52.108;19.942;2023-02-03T14:52:19;99477.39;;;-0.40;86.34
60920;BME280;59039;52.108;19.942;2023-02-03T14:57:57;99469.35;;;-0.34;86.13
60920;BME280;59039;52.108;19.942;2023-02-03T15:00:36;99461.31;;;-0.31;85.96
60920;BME280;59039;52.108;19.942;2023-02-03T15:05:56;99456.15;;;-0.26;85.72
60920;BME280;59039;52.108;19.942;2023-02-03T15:08:45;99453.73;;;-0.25;85.88
60920;BME280;59039;52.108;19.942;2023-02-03T15:11:27;99452.36;;;-0.23;86.16
60920;BME280;59039;52.108;19.942;2023-02-03T15:14:39;99449.02;;;-0.21;86.05
60920;BME280;59039;52.108;19.942;2023-02-03T15:17:00;99445.39;;;-0.20;85.99
60920;BME280;59039;52.108;19.942;2023-02-03T15:22:49;99443.69;;;-0.16;86.03
60920;BME280;59039;52.108;19.942;2023-02-03T15:28:41;99441.11;;;-0.13;86.06
60920;BME280;59039;52.108;19.942;2023-02-03T15:33:53;99435.57;;;-0.12;86.23
60920;BME280;59039;52.108;19.942;2023-02-03T15:36:26;99442.14;;;-0.12;86.38
60920;BME280;59039;52.108;19.942;2023-02-03T15:41:59;99439.08;;;-0.09;86.48
60920;BME280;59039;52.108;19.942;2023-02-03T15:44:37;99435.41;;;-0.08;86.65
60920;BME280;59039;52.108;19.942;2023-02-03T15:47:53;99436.08;;;-0.05;86.49
60920;BME280;59039;52.108;19.942;2023-02-03T15:56:45;99423.50;;;-0.01;86.25
60920;BME280;59039;52.108;19.942;2023-02-03T15:59:25;99421.06;;;0.02;86.25
60920;BME280;59039;52.108;19.942;2023-02-03T16:02:35;99419.65;;;0.01;86.50
60920;BME280;59039;52.108;19.942;2023-02-03T16:05:34;99412.23;;;0.03;87.16
60920;BME280;59039;52.108;19.942;2023-02-03T16:10:59;99412.23;;;0.10;87.03
60920;BME280;59039;52.108;19.942;2023-02-03T16:13:27;99409.24;;;0.12;87.32
60920;BME280;59039;52.108;19.942;2023-02-03T16:16:36;99414.50;;;0.15;87.38
60920;BME280;59039;52.108;19.942;2023-02-03T16:19:14;99408.61;;;0.18;87.47
60920;BME280;59039;52.108;19.942;2023-02-03T16:24:42;99413.02;;;0.24;87.80
60920;BME280;59039;52.108;19.942;2023-02-03T16:30:22;99415.38;;;0.30;88.16